^^

..:: Storico WU ::..




Lo storico viene creato da WUnderground con i dati che la stazione Meteomincio invia al loro server. L' aggiornamento viene fatto ogni 5 minuti circa, tuttavia possono esserci intervalli pił ampi a causa di errori, interruzioni di servizio o problemi nell' invio tramite FTP.


Storico stazione MeteoMincio
Giorno Sommario per Febbario 03, 2022 Unità:  Inglese    Metrico   Entrambi
Giorno Settimana Mese Anno
  Max: Min: Media:
Temperatura: 57.2 °F 32 °F 43.9 °F
Dew Point: 46.4 °F 30.2 °F 38.8 °F
Umidità: 93% 67% 83%
Velocità vento: 18mph 0mph 6mph
Raffica: 25.5mph - -
Direzione- - ESE
Pressione: 30.2 in 30 in -
Precipitazioni: 0 in    
 
 
Tabulato Dati per Febbario 03, 2022
Ora Temperatura Dew Point Pressione Direzione Velocità vento Raffica Umidità Intensità pioggia (oraria) Info solare Situazione
00:04 37.4 °F 33.8 °F 30 in NNE 2.5 mph 3.7 mph 86% 0 in 0.00 W/m2 unknown
00:09 37.4 °F 33.8 °F 30 in NNE 1.2 mph 3.1 mph 86% 0 in 0.00 W/m2 unknown
00:14 37.4 °F 33.8 °F 30 in NNE 1.2 mph 1.9 mph 86% 0 in 0.00 W/m2 unknown
00:19 37.4 °F 33.8 °F 30 in NW 1.9 mph 2.5 mph 86% 0 in 0.00 W/m2 unknown
00:24 35.6 °F 32 °F 30.1 in West 1.9 mph 2.5 mph 87% 0 in 0.00 W/m2 unknown
00:29 35.6 °F 32 °F 30 in West 3.1 mph 3.7 mph 87% 0 in 0.00 W/m2 unknown
00:34 35.6 °F 32 °F 30.1 in WNW 3.7 mph 3.7 mph 89% 0 in 0.00 W/m2 unknown
00:39 35.6 °F 32 °F 30.1 in NNW 3.7 mph 5 mph 89% 0 in 0.00 W/m2 unknown
00:44 37.4 °F 33.8 °F 30 in NW 3.1 mph 5 mph 88% 0 in 0.00 W/m2 unknown
00:49 37.4 °F 33.8 °F 30 in NW 3.1 mph 3.7 mph 87% 0 in 0.00 W/m2 unknown
00:54 37.4 °F 33.8 °F 30.1 in NW 3.7 mph 3.7 mph 86% 0 in 0.00 W/m2 unknown
00:59 37.4 °F 32 °F 30.1 in SW 6.2 mph 8.1 mph 86% 0 in 0.00 W/m2 unknown
01:04 35.6 °F 30.2 °F 30.1 in WSW 5 mph 8.1 mph 87% 0 in 0.00 W/m2 unknown
01:09 33.8 °F 32 °F 30.1 in WSW 5 mph 6.2 mph 88% 0 in 0.00 W/m2 unknown
01:14 35.6 °F 32 °F 30.1 in WSW 5 mph 6.2 mph 89% 0 in 0.00 W/m2 unknown
01:19 35.6 °F 32 °F 30.1 in WSW 3.1 mph 5 mph 89% 0 in 0.00 W/m2 unknown
01:24 35.6 °F 32 °F 30.1 in West 3.7 mph 5 mph 88% 0 in 0.00 W/m2 unknown
01:29 35.6 °F 32 °F 30.1 in WSW 3.7 mph 5 mph 88% 0 in 0.00 W/m2 unknown
01:34 35.6 °F 32 °F 30.1 in West 3.1 mph 5 mph 89% 0 in 0.00 W/m2 unknown
01:39 35.6 °F 32 °F 30.1 in WSW 3.1 mph 3.7 mph 88% 0 in 0.00 W/m2 unknown
01:44 35.6 °F 32 °F 30.1 in South 5 mph 6.2 mph 88% 0 in 0.00 W/m2 unknown
01:49 35.6 °F 32 °F 30.1 in SSE 5 mph 6.2 mph 88% 0 in 0.00 W/m2 unknown
01:54 35.6 °F 32 °F 30.1 in South 3.1 mph 6.2 mph 88% 0 in 0.00 W/m2 unknown
01:59 35.6 °F 32 °F 30.1 in SSW 3.1 mph 3.7 mph 88% 0 in 0.00 W/m2 unknown
02:04 33.8 °F 32 °F 30.1 in East 4.3 mph 6.2 mph 89% 0 in 0.00 W/m2 unknown
02:09 33.8 °F 32 °F 30.1 in NE 1.9 mph 6.2 mph 89% 0 in 0.00 W/m2 unknown
02:14 33.8 °F 32 °F 30.1 in NE 1.2 mph 3.1 mph 89% 0 in 0.00 W/m2 unknown
02:19 33.8 °F 32 °F 30.1 in NE 1.2 mph 2.5 mph 89% 0 in 0.00 W/m2 unknown
02:24 33.8 °F 32 °F 30.1 in ENE 2.5 mph 5 mph 89% 0 in 0.00 W/m2 unknown
02:29 33.8 °F 32 °F 30.1 in ESE 3.1 mph 5 mph 90% 0 in 0.00 W/m2 unknown
02:34 33.8 °F 32 °F 30.1 in SSW 5 mph 6.8 mph 89% 0 in 0.00 W/m2 unknown
02:39 33.8 °F 30.2 °F 30.1 in SW 5.6 mph 6.8 mph 89% 0 in 0.00 W/m2 unknown
02:44 33.8 °F 30.2 °F 30.1 in WSW 2.5 mph 6.8 mph 90% 0 in 0.00 W/m2 unknown
02:49 33.8 °F 32 °F 30.1 in WSW 1.9 mph 3.7 mph 90% 0 in 0.00 W/m2 unknown
02:54 33.8 °F 30.2 °F 30.1 in WSW 0.6 mph 3.1 mph 90% 0 in 0.00 W/m2 unknown
02:59 33.8 °F 30.2 °F 30.1 in SE 3.7 mph 5 mph 90% 0 in 0.00 W/m2 unknown
03:04 33.8 °F 32 °F 30.1 in East 3.7 mph 5 mph 90% 0 in 0.00 W/m2 unknown
03:09 33.8 °F 32 °F 30.1 in ENE 3.1 mph 5 mph 90% 0 in 0.00 W/m2 unknown
03:14 33.8 °F 30.2 °F 30.1 in ENE 0.6 mph 3.1 mph 90% 0 in 0.00 W/m2 unknown
03:19 33.8 °F 30.2 °F 30.1 in ENE 5 mph 6.2 mph 91% 0 in 0.00 W/m2 unknown
03:24 33.8 °F 30.2 °F 30.1 in ENE 5 mph 6.8 mph 91% 0 in 0.00 W/m2 unknown
03:29 33.8 °F 30.2 °F 30.1 in NE 5 mph 6.8 mph 91% 0 in 0.00 W/m2 unknown
03:34 32 °F 30.2 °F 30.1 in ENE 1.9 mph 5 mph 92% 0 in 0.00 W/m2 unknown
03:39 32 °F 30.2 °F 30.1 in East 2.5 mph 3.7 mph 92% 0 in 0.00 W/m2 unknown
03:44 32 °F 30.2 °F 30.1 in ENE 2.5 mph 3.1 mph 92% 0 in 0.00 W/m2 unknown
03:49 32 °F 30.2 °F 30.1 in NNE 3.1 mph 3.7 mph 92% 0 in 0.00 W/m2 unknown
03:54 33.8 °F 32 °F 30.1 in East 2.5 mph 3.7 mph 93% 0 in 0.00 W/m2 unknown
03:59 33.8 °F 32 °F 30.1 in East 3.1 mph 3.7 mph 93% 0 in 0.00 W/m2 unknown
04:04 33.8 °F 32 °F 30.1 in NE 1.2 mph 3.7 mph 93% 0 in 0.00 W/m2 unknown
04:09 33.8 °F 32 °F 30.1 in NE 4.3 mph 5 mph 92% 0 in 0.00 W/m2 unknown
04:14 33.8 °F 32 °F 30.1 in NE 5 mph 5 mph 92% 0 in 0.00 W/m2 unknown
04:19 33.8 °F 32 °F 30.1 in NE 6.2 mph 8.7 mph 92% 0 in 0.00 W/m2 unknown
04:24 33.8 °F 32 °F 30.1 in NE 6.2 mph 9.3 mph 92% 0 in 0.00 W/m2 unknown
04:29 33.8 °F 32 °F 30.1 in NE 5 mph 8.7 mph 92% 0 in 0.00 W/m2 unknown
04:34 33.8 °F 32 °F 30.1 in ENE 6.8 mph 9.3 mph 92% 0 in 0.00 W/m2 unknown
04:39 33.8 °F 32 °F 30.1 in ENE 5.6 mph 9.3 mph 91% 0 in 0.00 W/m2 unknown
04:44 33.8 °F 32 °F 30.1 in ENE 7.5 mph 9.3 mph 91% 0 in 0.00 W/m2 unknown
04:49 33.8 °F 32 °F 30.1 in ENE 6.8 mph 8.7 mph 91% 0 in 0.00 W/m2 unknown
04:54 33.8 °F 32 °F 30.1 in East 5.6 mph 8.1 mph 91% 0 in 0.00 W/m2 unknown
04:59 33.8 °F 32 °F 30.1 in East 3.7 mph 6.8 mph 91% 0 in 0.00 W/m2 unknown
05:04 33.8 °F 30.2 °F 30.1 in East 5 mph 6.2 mph 92% 0 in 0.00 W/m2 unknown
05:09 33.8 °F 30.2 °F 30.1 in East 5.6 mph 6.8 mph 92% 0 in 0.00 W/m2 unknown
05:14 33.8 °F 32 °F 30.1 in East 6.2 mph 8.1 mph 93% 0 in 0.00 W/m2 unknown
05:19 33.8 °F 32 °F 30.1 in East 6.2 mph 8.1 mph 92% 0 in 0.00 W/m2 unknown
05:24 35.6 °F 33.8 °F 30.1 in East 6.8 mph 9.3 mph 92% 0 in 0.00 W/m2 unknown
05:29 35.6 °F 33.8 °F 30.1 in East 6.2 mph 8.7 mph 91% 0 in 0.00 W/m2 unknown
05:34 35.6 °F 33.8 °F 30.1 in ESE 5 mph 6.8 mph 91% 0 in 0.00 W/m2 unknown
05:39 35.6 °F 33.8 °F 30.1 in ENE 3.1 mph 5 mph 90% 0 in 0.00 W/m2 unknown
05:44 35.6 °F 33.8 °F 30.1 in ENE 2.5 mph 5 mph 90% 0 in 0.00 W/m2 unknown
05:49 35.6 °F 33.8 °F 30.1 in NE 1.9 mph 5 mph 90% 0 in 0.00 W/m2 unknown
05:54 35.6 °F 33.8 °F 30.1 in East 5.6 mph 6.2 mph 91% 0 in 0.00 W/m2 unknown
05:59 37.4 °F 33.8 °F 30.1 in East 5 mph 8.1 mph 91% 0 in 0.00 W/m2 unknown
06:04 37.4 °F 33.8 °F 30.1 in East 5 mph 8.1 mph 90% 0 in 0.00 W/m2 unknown
06:09 37.4 °F 33.8 °F 30.1 in East 5.6 mph 6.2 mph 90% 0 in 0.00 W/m2 unknown
06:14 37.4 °F 33.8 °F 30.1 in East 5.6 mph 6.2 mph 90% 0 in 0.00 W/m2 unknown
06:19 37.4 °F 33.8 °F 30.1 in East 6.2 mph 6.2 mph 90% 0 in 0.00 W/m2 unknown
06:24 37.4 °F 33.8 °F 30.1 in East 5.6 mph 6.8 mph 90% 0 in 0.00 W/m2 unknown
06:29 37.4 °F 35.6 °F 30.1 in East 6.2 mph 6.8 mph 90% 0 in 0.00 W/m2 unknown
06:34 37.4 °F 35.6 °F 30.1 in East 5 mph 6.8 mph 90% 0 in 0.00 W/m2 unknown
06:39 37.4 °F 35.6 °F 30.1 in East 4.3 mph 5 mph 90% 0 in 0.00 W/m2 unknown
06:44 37.4 °F 35.6 °F 30.1 in East 5 mph 6.8 mph 90% 0 in 0.00 W/m2 unknown
06:49 37.4 °F 35.6 °F 30.1 in East 5.6 mph 6.8 mph 90% 0 in 0.00 W/m2 unknown
06:54 37.4 °F 33.8 °F 30.1 in East 6.2 mph 6.8 mph 90% 0 in 0.00 W/m2 unknown
06:59 37.4 °F 35.6 °F 30.2 in East 4.3 mph 6.8 mph 91% 0 in 0.00 W/m2 unknown
07:04 37.4 °F 35.6 °F 30.2 in ESE 3.7 mph 6.2 mph 90% 0 in 0.00 W/m2 unknown
07:09 37.4 °F 33.8 °F 30.2 in East 5.6 mph 6.8 mph 90% 0 in 0.00 W/m2 unknown
07:14 37.4 °F 35.6 °F 30.2 in East 5.6 mph 6.8 mph 91% 0 in 0.00 W/m2 unknown
07:19 37.4 °F 35.6 °F 30.2 in East 6.2 mph 6.8 mph 91% 0 in 0.00 W/m2 unknown
07:24 37.4 °F 35.6 °F 30.2 in East 6.8 mph 8.1 mph 90% 0 in 0.00 W/m2 unknown
07:29 37.4 °F 35.6 °F 30.2 in ENE 6.8 mph 9.3 mph 90% 0 in 0.00 W/m2 unknown
07:34 37.4 °F 35.6 °F 30.2 in ENE 6.2 mph 8.7 mph 90% 0 in 0.00 W/m2 unknown
07:39 37.4 °F 35.6 °F 30.2 in ENE 6.2 mph 8.1 mph 89% 0 in 5.00 W/m2 unknown
07:44 37.4 °F 35.6 °F 30.2 in East 5 mph 6.8 mph 90% 0 in 7.00 W/m2 unknown
07:49 37.4 °F 35.6 °F 30.2 in East 5 mph 6.8 mph 90% 0 in 9.00 W/m2 unknown
07:54 37.4 °F 33.8 °F 30.2 in ENE 4.3 mph 5 mph 90% 0 in 11.00 W/m2 unknown
07:59 37.4 °F 33.8 °F 30.2 in ENE 3.7 mph 5 mph 90% 0 in 12.00 W/m2 unknown
08:04 37.4 °F 33.8 °F 30.2 in ENE 3.7 mph 6.8 mph 91% 0 in 12.00 W/m2 unknown
08:09 37.4 °F 33.8 °F 30.2 in ENE 4.3 mph 6.8 mph 90% 0 in 11.00 W/m2 unknown
08:14 37.4 °F 33.8 °F 30.2 in ENE 3.1 mph 6.2 mph 90% 0 in 14.00 W/m2 unknown
08:19 37.4 °F 33.8 °F 30.2 in ENE 2.5 mph 3.7 mph 90% 0 in 26.00 W/m2 unknown
08:24 37.4 °F 33.8 °F 30.2 in ENE 1.2 mph 3.1 mph 90% 0 in 42.00 W/m2 unknown
08:29 37.4 °F 33.8 °F 30.2 in East 1.2 mph 2.5 mph 91% 0 in 65.00 W/m2 unknown
08:34 37.4 °F 35.6 °F 30.2 in ESE 1.9 mph 3.7 mph 91% 0 in 79.00 W/m2 unknown
08:39 37.4 °F 35.6 °F 30.2 in ESE 3.1 mph 3.7 mph 91% 0 in 91.00 W/m2 unknown
08:44 37.4 °F 35.6 °F 30.2 in ESE 3.1 mph 3.7 mph 90% 0 in 102.00 W/m2 unknown
08:49 39.2 °F 35.6 °F 30.2 in SE 1.2 mph 3.1 mph 89% 0 in 113.00 W/m2 unknown
08:54 39.2 °F 35.6 °F 30.2 in South 1.2 mph 2.5 mph 88% 0 in 123.00 W/m2 unknown
08:59 39.2 °F 35.6 °F 30.2 in SSW 2.5 mph 3.7 mph 88% 0 in 137.00 W/m2 unknown
09:04 39.2 °F 35.6 °F 30.2 in South 1.9 mph 3.7 mph 89% 0 in 151.00 W/m2 unknown
09:09 39.2 °F 35.6 °F 30.2 in SSW 3.1 mph 3.7 mph 89% 0 in 163.00 W/m2 unknown
09:14 39.2 °F 37.4 °F 30.2 in SSW 3.1 mph 3.7 mph 89% 0 in 174.00 W/m2 unknown
09:19 39.2 °F 37.4 °F 30.2 in South 3.1 mph 3.7 mph 88% 0 in 183.00 W/m2 unknown
09:24 41 °F 37.4 °F 30.2 in South 2.5 mph 3.7 mph 88% 0 in 193.00 W/m2 unknown
09:29 41 °F 37.4 °F 30.2 in SSW 1.9 mph 3.7 mph 88% 0 in 204.00 W/m2 unknown
09:34 41 °F 37.4 °F 30.2 in South 1.2 mph 3.1 mph 87% 0 in 218.00 W/m2 unknown
09:39 41 °F 37.4 °F 30.2 in Calm   1.9 mph 87% 0 in 232.00 W/m2 unknown
09:44 42.8 °F 37.4 °F 30.2 in Calm   1.2 mph 86% 0 in 244.00 W/m2 unknown
09:49 42.8 °F 39.2 °F 30.2 in SE 1.2 mph 2.5 mph 85% 0 in 258.00 W/m2 unknown
09:54 42.8 °F 39.2 °F 30.2 in SE 1.2 mph 2.5 mph 84% 0 in 271.00 W/m2 unknown
09:59 44.6 °F 39.2 °F 30.2 in East 1.2 mph 2.5 mph 84% 0 in 281.00 W/m2 unknown
10:04 44.6 °F 39.2 °F 30.2 in ESE 1.9 mph 3.7 mph 84% 0 in 288.00 W/m2 unknown
10:09 44.6 °F 41 °F 30.2 in ENE 2.5 mph 3.7 mph 84% 0 in 302.00 W/m2 unknown
10:14 46.4 °F 41 °F 30.2 in ENE 3.7 mph 5 mph 83% 0 in 299.00 W/m2 unknown
10:19 46.4 °F 41 °F 30.2 in ENE 3.7 mph 5 mph 82% 0 in 311.00 W/m2 unknown
10:24 46.4 °F 41 °F 30.2 in ENE 3.1 mph 5 mph 83% 0 in 315.00 W/m2 unknown
10:29 48.2 °F 42.8 °F 30.2 in ENE 5.6 mph 6.8 mph 81% 0 in 325.00 W/m2 unknown
10:34 48.2 °F 42.8 °F 30.2 in East 5 mph 6.8 mph 81% 0 in 341.00 W/m2 unknown
10:39 48.2 °F 42.8 °F 30.2 in ENE 8.7 mph 11.8 mph 80% 0 in 352.00 W/m2 unknown
10:44 50 °F 44.6 °F 30.2 in ENE 8.1 mph 11.8 mph 80% 0 in 350.00 W/m2 unknown
10:49 51.8 °F 44.6 °F 30.2 in East 11.2 mph 16.2 mph 80% 0 in 339.00 W/m2 unknown
10:54 51.8 °F 44.6 °F 30.2 in East 11.8 mph 16.2 mph 78% 0 in 355.00 W/m2 unknown
10:59 51.8 °F 44.6 °F 30.2 in East 9.9 mph 16.2 mph 78% 0 in 364.00 W/m2 unknown
11:04 51.8 °F 44.6 °F 30.2 in East 11.8 mph 16.2 mph 78% 0 in 387.00 W/m2 unknown
11:09 51.8 °F 44.6 °F 30.2 in East 13 mph 16.8 mph 77% 0 in 396.00 W/m2 unknown
11:14 51.8 °F 44.6 °F 30.2 in East 13.7 mph 19.3 mph 76% 0 in 413.00 W/m2 unknown
11:19 51.8 °F 44.6 °F 30.2 in ENE 13 mph 19.9 mph 76% 0 in 396.00 W/m2 unknown
11:24 53.6 °F 44.6 °F 30.2 in East 13.7 mph 19.9 mph 76% 0 in 408.00 W/m2 unknown
11:29 53.6 °F 44.6 °F 30.2 in ENE 17.4 mph 21.1 mph 75% 0 in 411.00 W/m2 unknown
11:34 53.6 °F 44.6 °F 30.2 in ENE 15.5 mph 21.1 mph 74% 0 in 408.00 W/m2 unknown
11:39 53.6 °F 44.6 °F 30.2 in ENE 15.5 mph 21.1 mph 74% 0 in 434.00 W/m2 unknown
11:44 53.6 °F 44.6 °F 30.2 in ENE 16.8 mph 21.1 mph 73% 0 in 441.00 W/m2 unknown
11:49 53.6 °F 46.4 °F 30.2 in ENE 13.7 mph 23 mph 73% 0 in 457.00 W/m2 unknown
11:54 53.6 °F 46.4 °F 30.2 in ENE 16.8 mph 23 mph 73% 0 in 466.00 W/m2 unknown
11:59 53.6 °F 46.4 °F 30.2 in ENE 14.9 mph 21.1 mph 73% 0 in 478.00 W/m2 unknown
12:04 55.4 °F 46.4 °F 30.2 in East 14.9 mph 21.1 mph 73% 0 in 478.00 W/m2 unknown
12:09 55.4 °F 46.4 °F 30.2 in East 18 mph 24.2 mph 73% 0 in 473.00 W/m2 unknown
12:14 55.4 °F 46.4 °F 30.2 in East 14.3 mph 24.2 mph 72% 0 in 471.00 W/m2 unknown
12:19 55.4 °F 46.4 °F 30.2 in East 14.3 mph 24.2 mph 72% 0 in 461.00 W/m2 unknown
12:24 55.4 °F 46.4 °F 30.2 in East 15.5 mph 23 mph 72% 0 in 455.00 W/m2 unknown
12:29 55.4 °F 46.4 °F 30.2 in ENE 16.2 mph 25.5 mph 72% 0 in 471.00 W/m2 unknown
12:34 55.4 °F 46.4 °F 30.2 in East 15.5 mph 25.5 mph 71% 0 in 471.00 W/m2 unknown
12:39 55.4 °F 46.4 °F 30.2 in East 14.9 mph 21.7 mph 71% 0 in 471.00 W/m2 unknown
12:44 55.4 °F 46.4 °F 30.2 in ENE 14.9 mph 21.1 mph 71% 0 in 466.00 W/m2 unknown
12:49 55.4 °F 44.6 °F 30.2 in East 16.8 mph 23 mph 70% 0 in 471.00 W/m2 unknown
12:54 55.4 °F 46.4 °F 30.2 in East 14.9 mph 23 mph 70% 0 in 478.00 W/m2 unknown
12:59 55.4 °F 44.6 °F 30.2 in ENE 15.5 mph 21.7 mph 69% 0 in 478.00 W/m2 unknown
13:04 55.4 °F 46.4 °F 30.2 in East 16.2 mph 21.7 mph 70% 0 in 408.00 W/m2 unknown
13:09 55.4 °F 46.4 °F 30.2 in East 13.7 mph 21.7 mph 70% 0 in 469.00 W/m2 unknown
13:14 55.4 °F 46.4 °F 30.2 in East 14.3 mph 21.7 mph 69% 0 in 468.00 W/m2 unknown
13:19 55.4 °F 46.4 °F 30.2 in East 15.5 mph 21.7 mph 69% 0 in 490.00 W/m2 unknown
13:24 55.4 °F 46.4 °F 30.2 in East 14.9 mph 19.3 mph 69% 0 in 496.00 W/m2 unknown
13:29 57.2 °F 46.4 °F 30.2 in East 16.2 mph 24.2 mph 69% 0 in 496.00 W/m2 unknown
13:34 57.2 °F 46.4 °F 30.2 in East 13.7 mph 24.2 mph 68% 0 in 464.00 W/m2 unknown
13:39 55.4 °F 46.4 °F 30.2 in East 14.9 mph 19.9 mph 68% 0 in 429.00 W/m2 unknown
13:44 57.2 °F 46.4 °F 30.2 in East 13.7 mph 19.9 mph 68% 0 in 399.00 W/m2 unknown
13:49 57.2 °F 46.4 °F 30.2 in East 12.4 mph 18.6 mph 68% 0 in 394.00 W/m2 unknown
13:54 57.2 °F 46.4 °F 30.2 in East 11.2 mph 14.9 mph 68% 0 in 385.00 W/m2 unknown
13:59 57.2 °F 46.4 °F 30.2 in East 10.6 mph 14.9 mph 68% 0 in 392.00 W/m2 unknown
14:04 57.2 °F 46.4 °F 30.2 in East 13 mph 19.9 mph 67% 0 in 367.00 W/m2 unknown
14:09 55.4 °F 44.6 °F 30.2 in East 14.9 mph 19.9 mph 67% 0 in 329.00 W/m2 unknown
14:14 55.4 °F 44.6 °F 30.2 in East 16.8 mph 21.7 mph 68% 0 in 262.00 W/m2 unknown
14:19 55.4 °F 44.6 °F 30.2 in ENE 16.2 mph 21.7 mph 68% 0 in 237.00 W/m2 unknown
14:24 55.4 °F 44.6 °F 30.2 in East 13 mph 19.9 mph 68% 0 in 229.00 W/m2 unknown
14:29 55.4 °F 44.6 °F 30.2 in East 13.7 mph 18.6 mph 69% 0 in 227.00 W/m2 unknown
14:34 55.4 °F 46.4 °F 30.2 in East 12.4 mph 18 mph 69% 0 in 320.00 W/m2 unknown
14:39 55.4 °F 46.4 °F 30.2 in East 13 mph 16.2 mph 69% 0 in 424.00 W/m2 unknown
14:44 57.2 °F 46.4 °F 30.2 in East 11.8 mph 17.4 mph 69% 0 in 396.00 W/m2 unknown
14:49 57.2 °F 46.4 °F 30.2 in East 14.9 mph 19.9 mph 68% 0 in 227.00 W/m2 unknown
14:54 55.4 °F 46.4 °F 30.2 in East 14.3 mph 21.7 mph 69% 0 in 257.00 W/m2 unknown
14:59 55.4 °F 44.6 °F 30.2 in East 14.9 mph 21.7 mph 68% 0 in 257.00 W/m2 unknown
15:04 55.4 °F 44.6 °F 30.2 in ESE 13 mph 21.7 mph 69% 0 in 216.00 W/m2 unknown
15:09 55.4 °F 44.6 °F 30.2 in East 13 mph 18 mph 69% 0 in 265.00 W/m2 unknown
15:14 55.4 °F 44.6 °F 30.2 in East 13 mph 16.8 mph 69% 0 in 209.00 W/m2 unknown
15:19 55.4 °F 44.6 °F 30.2 in East 9.9 mph 13 mph 69% 0 in 153.00 W/m2 unknown
15:24 55.4 °F 44.6 °F 30.2 in East 13 mph 18.6 mph 69% 0 in 141.00 W/m2 unknown
15:29 55.4 °F 44.6 °F 30.2 in East 14.3 mph 18 mph 69% 0 in 167.00 W/m2 unknown
15:34 55.4 °F 44.6 °F 30.2 in East 13 mph 18.6 mph 69% 0 in 200.00 W/m2 unknown
15:39 55.4 °F 44.6 °F 30.2 in ENE 12.4 mph 18.6 mph 68% 0 in 244.00 W/m2 unknown
15:44 55.4 °F 44.6 °F 30.2 in East 11.8 mph 16.8 mph 69% 0 in 120.00 W/m2 unknown
15:49 55.4 °F 44.6 °F 30.2 in East 11.8 mph 16.2 mph 68% 0 in 116.00 W/m2 unknown
15:54 53.6 °F 44.6 °F 30.2 in East 12.4 mph 16.2 mph 69% 0 in 107.00 W/m2 unknown
15:59 53.6 °F 44.6 °F 30.2 in East 11.8 mph 16.2 mph 69% 0 in 98.00 W/m2 unknown
16:04 53.6 °F 44.6 °F 30.2 in East 11.2 mph 16.2 mph 69% 0 in 86.00 W/m2 unknown
16:09 53.6 °F 44.6 °F 30.2 in East 9.9 mph 16.2 mph 70% 0 in 69.00 W/m2 unknown
16:14 53.6 °F 44.6 °F 30.2 in East 9.9 mph 14.3 mph 70% 0 in 60.00 W/m2 unknown
16:19 53.6 °F 44.6 °F 30.2 in East 8.7 mph 14.3 mph 70% 0 in 60.00 W/m2 unknown
16:24 53.6 °F 42.8 °F 30.2 in East 9.9 mph 14.3 mph 70% 0 in 58.00 W/m2 unknown
16:29 53.6 °F 44.6 °F 30.2 in East 8.7 mph 14.3 mph 71% 0 in 77.00 W/m2 unknown
16:34 53.6 °F 44.6 °F 30.2 in East 6.8 mph 14.3 mph 71% 0 in 63.00 W/m2 unknown
16:39 53.6 °F 42.8 °F 30.2 in ESE 8.1 mph 9.9 mph 71% 0 in 56.00 W/m2 unknown
16:44 51.8 °F 42.8 °F 30.2 in East 8.7 mph 10.6 mph 71% 0 in 51.00 W/m2 unknown
16:49 51.8 °F 44.6 °F 30.2 in ESE 6.8 mph 9.9 mph 72% 0 in 47.00 W/m2 unknown
16:54 51.8 °F 42.8 °F 30.2 in East 6.2 mph 8.7 mph 72% 0 in 40.00 W/m2 unknown
16:59 51.8 °F 42.8 °F 30.2 in East 6.8 mph 10.6 mph 73% 0 in 39.00 W/m2 unknown
17:04 51.8 °F 42.8 °F 30.2 in East 7.5 mph 9.9 mph 73% 0 in 30.00 W/m2 unknown
17:09 51.8 °F 42.8 °F 30.2 in East 7.5 mph 9.3 mph 73% 0 in 19.00 W/m2 unknown
17:14 51.8 °F 42.8 °F 30.2 in East 6.2 mph 9.3 mph 74% 0 in 16.00 W/m2 unknown
17:19 51.8 °F 42.8 °F 30.2 in East 8.1 mph 11.2 mph 75% 0 in 9.00 W/m2 unknown
17:24 51.8 °F 42.8 °F 30.2 in East 8.1 mph 11.8 mph 75% 0 in 5.00 W/m2 unknown
17:29 50 °F 42.8 °F 30.2 in East 6.2 mph 11.8 mph 75% 0 in 0.00 W/m2 unknown
17:34 50 °F 42.8 °F 30.2 in East 6.8 mph 8.7 mph 76% 0 in 0.00 W/m2 unknown
17:39 50 °F 42.8 °F 30.2 in East 6.2 mph 9.3 mph 76% 0 in 0.00 W/m2 unknown
17:44 50 °F 42.8 °F 30.2 in East 6.8 mph 9.3 mph 77% 0 in 0.00 W/m2 unknown
17:49 50 °F 42.8 °F 30.2 in East 6.8 mph 9.3 mph 77% 0 in 0.00 W/m2 unknown
17:54 50 °F 42.8 °F 30.2 in ENE 7.5 mph 9.3 mph 78% 0 in 0.00 W/m2 unknown
17:59 50 °F 42.8 °F 30.2 in ENE 7.5 mph 9.3 mph 78% 0 in 0.00 W/m2 unknown
18:04 50 °F 42.8 °F 30.2 in ENE 6.8 mph 9.3 mph 78% 0 in 0.00 W/m2 unknown
18:09 48.2 °F 42.8 °F 30.2 in ENE 6.8 mph 9.3 mph 78% 0 in 0.00 W/m2 unknown
18:14 48.2 °F 42.8 °F 30.2 in ENE 6.2 mph 8.1 mph 79% 0 in 0.00 W/m2 unknown
18:19 48.2 °F 42.8 °F 30.2 in ENE 6.2 mph 8.1 mph 79% 0 in 0.00 W/m2 unknown
18:24 48.2 °F 42.8 °F 30.2 in ENE 6.2 mph 8.1 mph 79% 0 in 0.00 W/m2 unknown
18:29 48.2 °F 42.8 °F 30.2 in ENE 5 mph 8.1 mph 80% 0 in 0.00 W/m2 unknown
18:34 48.2 °F 42.8 °F 30.2 in ENE 6.2 mph 8.1 mph 80% 0 in 0.00 W/m2 unknown
18:39 48.2 °F 42.8 °F 30.2 in ENE 6.2 mph 8.1 mph 81% 0 in 0.00 W/m2 unknown
18:44 48.2 °F 42.8 °F 30.2 in East 6.2 mph 8.1 mph 81% 0 in 0.00 W/m2 unknown
18:49 48.2 °F 42.8 °F 30.2 in East 6.2 mph 9.3 mph 81% 0 in 0.00 W/m2 unknown
18:54 48.2 °F 41 °F 30.2 in East 6.2 mph 8.7 mph 81% 0 in 0.00 W/m2 unknown
18:59 46.4 °F 42.8 °F 30.2 in East 3.1 mph 5 mph 82% 0 in 0.00 W/m2 unknown
19:04 46.4 °F 41 °F 30.2 in East 2.5 mph 5 mph 82% 0 in 0.00 W/m2 unknown
19:09 46.4 °F 41 °F 30.2 in ENE 3.7 mph 6.2 mph 83% 0 in 0.00 W/m2 unknown
19:14 46.4 °F 41 °F 30.2 in ENE 4.3 mph 6.8 mph 83% 0 in 0.00 W/m2 unknown
19:19 46.4 °F 42.8 °F 30.2 in ENE 4.3 mph 8.1 mph 83% 0 in 0.00 W/m2 unknown
19:24 46.4 °F 41 °F 30.2 in ENE 4.3 mph 6.8 mph 83% 0 in 0.00 W/m2 unknown
19:29 46.4 °F 41 °F 30.2 in ENE 3.7 mph 6.8 mph 83% 0 in 0.00 W/m2 unknown
19:34 46.4 °F 41 °F 30.2 in ENE 4.3 mph 6.2 mph 83% 0 in 0.00 W/m2 unknown
19:39 46.4 °F 41 °F 30.2 in East 3.7 mph 6.2 mph 83% 0 in 0.00 W/m2 unknown
19:44 46.4 °F 41 °F 30.2 in ENE 4.3 mph 6.2 mph 83% 0 in 0.00 W/m2 unknown
19:49 46.4 °F 41 °F 30.2 in ENE 4.3 mph 6.2 mph 84% 0 in 0.00 W/m2 unknown
19:54 46.4 °F 41 °F 30.2 in East 3.7 mph 6.2 mph 84% 0 in 0.00 W/m2 unknown
19:59 46.4 °F 41 °F 30.2 in ENE 3.7 mph 6.2 mph 84% 0 in 0.00 W/m2 unknown
20:04 46.4 °F 41 °F 30.2 in East 3.7 mph 5 mph 85% 0 in 0.00 W/m2 unknown
20:09 44.6 °F 41 °F 30.2 in ENE 1.9 mph 5 mph 85% 0 in 0.00 W/m2 unknown
20:14 44.6 °F 41 °F 30.2 in ENE 1.2 mph 3.1 mph 86% 0 in 0.00 W/m2 unknown
20:19 44.6 °F 41 °F 30.2 in ENE 1.2 mph 2.5 mph 86% 0 in 0.00 W/m2 unknown
20:24 44.6 °F 41 °F 30.2 in Calm   1.9 mph 87% 0 in 0.00 W/m2 unknown
20:29 44.6 °F 41 °F 30.2 in Calm     88% 0 in 0.00 W/m2 unknown
20:34 44.6 °F 41 °F 30.2 in Calm     88% 0 in 0.00 W/m2 unknown
20:39 44.6 °F 39.2 °F 30.2 in Calm     87% 0 in 0.00 W/m2 unknown
20:44 42.8 °F 39.2 °F 30.2 in Calm     88% 0 in 0.00 W/m2 unknown
20:49 42.8 °F 39.2 °F 30.2 in Calm     88% 0 in 0.00 W/m2 unknown
20:54 42.8 °F 39.2 °F 30.2 in Calm     88% 0 in 0.00 W/m2 unknown
20:59 42.8 °F 39.2 °F 30.2 in Calm     88% 0 in 0.00 W/m2 unknown
21:04 42.8 °F 39.2 °F 30.2 in Calm     88% 0 in 0.00 W/m2 unknown
21:09 42.8 °F 39.2 °F 30.2 in Calm     89% 0 in 0.00 W/m2 unknown
21:14 42.8 °F 39.2 °F 30.2 in Calm     89% 0 in 0.00 W/m2 unknown
21:19 42.8 °F 39.2 °F 30.2 in Calm     89% 0 in 0.00 W/m2 unknown
21:24 42.8 °F 39.2 °F 30.2 in Calm     89% 0 in 0.00 W/m2 unknown
21:29 42.8 °F 39.2 °F 30.2 in Calm     88% 0 in 0.00 W/m2 unknown
21:34 42.8 °F 39.2 °F 30.2 in Calm     88% 0 in 0.00 W/m2 unknown
21:39 42.8 °F 39.2 °F 30.2 in SE 1.9 mph 3.7 mph 88% 0 in 0.00 W/m2 unknown
21:44 42.8 °F 39.2 °F 30.2 in Calm   3.1 mph 89% 0 in 0.00 W/m2 unknown
21:49 42.8 °F 39.2 °F 30.2 in SE 0.6 mph 1.9 mph 89% 0 in 0.00 W/m2 unknown
21:54 42.8 °F 39.2 °F 30.2 in NNE 1.9 mph 3.7 mph 90% 0 in 0.00 W/m2 unknown
21:59 42.8 °F 39.2 °F 30.2 in NNE 1.2 mph 3.1 mph 90% 0 in 0.00 W/m2 unknown
22:04 42.8 °F 39.2 °F 30.2 in North 2.5 mph 3.7 mph 89% 0 in 0.00 W/m2 unknown
22:09 42.8 °F 39.2 °F 30.2 in NNE 2.5 mph 3.7 mph 90% 0 in 0.00 W/m2 unknown
22:14 42.8 °F 39.2 °F 30.2 in NNE 2.5 mph 3.7 mph 90% 0 in 0.00 W/m2 unknown
22:19 42.8 °F 39.2 °F 30.2 in NE 1.9 mph 3.1 mph 90% 0 in 0.00 W/m2 unknown
22:24 42.8 °F 39.2 °F 30.2 in NE 1.2 mph 2.5 mph 89% 0 in 0.00 W/m2 unknown
22:29 42.8 °F 39.2 °F 30.2 in Calm   1.9 mph 89% 0 in 0.00 W/m2 unknown
22:34 41 °F 39.2 °F 30.2 in Calm     90% 0 in 0.00 W/m2 unknown
22:39 41 °F 39.2 °F 30.2 in NE 0.6 mph 1.2 mph 89% 0 in 0.00 W/m2 unknown
22:44 41 °F 39.2 °F 30.2 in NE 1.2 mph 1.2 mph 90% 0 in 0.00 W/m2 unknown
22:49 41 °F 39.2 °F 30.2 in Calm   1.2 mph 90% 0 in 0.00 W/m2 unknown
22:54 41 °F 39.2 °F 30.2 in Calm     90% 0 in 0.00 W/m2 unknown
22:59 41 °F 39.2 °F 30.2 in Calm     90% 0 in 0.00 W/m2 unknown
23:04 41 °F 39.2 °F 30.2 in Calm     89% 0 in 0.00 W/m2 unknown
23:09 41 °F 37.4 °F 30.2 in Calm     90% 0 in 0.00 W/m2 unknown
23:14 41 °F 37.4 °F 30.2 in West 2.5 mph 3.7 mph 90% 0 in 0.00 W/m2 unknown
23:19 41 °F 39.2 °F 30.2 in West 1.9 mph 3.7 mph 91% 0 in 0.00 W/m2 unknown
23:24 41 °F 39.2 °F 30.1 in Calm   3.1 mph 91% 0 in 0.00 W/m2 unknown
23:29 41 °F 37.4 °F 30.1 in Calm     90% 0 in 0.00 W/m2 unknown
23:34 41 °F 37.4 °F 30.1 in Calm     90% 0 in 0.00 W/m2 unknown
23:39 41 °F 37.4 °F 30.1 in Calm     91% 0 in 0.00 W/m2 unknown
23:44 41 °F 37.4 °F 30.1 in Calm     90% 0 in 0.00 W/m2 unknown
23:49 41 °F 37.4 °F 30.1 in Calm     90% 0 in 0.00 W/m2 unknown
23:54 39.2 °F 37.4 °F 30.1 in West 0.6 mph 1.2 mph 91% 0 in 0.00 W/m2 unknown
23:59 39.2 °F 37.4 °F 30.1 in West 1.2 mph 1.2 mph 91% 0 in 0.00 W/m2 unknown
Stazione Meteorologica MeteoMincio Rivalta s/M (MN)
Con i complimenti di Weather Underground - 4 mb



METEO PILLOLE
Maggior quantità di pioggia caduta in 6 ore in Italia
Cairo Montenotte (Savona)
Il 4 ottobre 2021 caddero 496mm di pioggia.
Share

Non seguire questo link o sarai bannato dal sito!